Flight Briefing for CPX327

Departure Arrival
Cincinnati/Northern Kentucky International Airport (KCVG)
Click to view FAA NOTAMS
Miami International Airport (KMIA)
Click to view FAA NOTAMS
Departure Time Arrival Time
N/A N/A
Aircraft Distance
B767-300BDSF 898nm
Departure METAR Arrival METAR
KCVG 221152Z 26010KT 9SM CLR 03/00 A2992 RMK AO2 SLP132 70008 T00280000 10050 20022 55003 KMIA 221153Z 32006KT 10SM CLR 16/12 A3007 RMK AO2 SLP184 T01560117 10172 20150 53016
Suggested Route
KENLN4 HYK VXV J43 ATL J89 OTK JUULI SSCOT5


View recent IFR Routes data
Notes



Charts and Procedures

Charts for KCVG
No chart available
Charts for KMIA
No chart available

Windy.com Weather Map